createdAt,value
2018-06-17T00:00:08.853Z,100309.10
2018-06-17T00:02:37.543Z,100313.20
2018-06-17T00:05:06.499Z,100316.20
2018-06-17T00:07:35.037Z,100332.41
2018-06-17T00:10:04.216Z,100336.77
2018-06-17T00:12:33.101Z,100328.63
2018-06-17T00:15:01.655Z,100336.77
2018-06-17T00:17:30.143Z,100345.70
2018-06-17T00:19:59.017Z,100359.34
2018-06-17T00:22:27.721Z,100360.53
2018-06-17T00:24:56.818Z,100352.42
2018-06-17T00:27:25.393Z,100361.96
2018-06-17T00:29:53.973Z,100360.52
2018-06-17T00:32:22.533Z,100359.61
2018-06-17T00:34:51.053Z,100370.27
2018-06-17T00:37:19.584Z,100365.80
2018-06-17T00:39:48.391Z,100357.73
2018-06-17T00:42:16.902Z,100346.05
2018-06-17T00:44:45.397Z,100348.64
2018-06-17T00:47:13.931Z,100349.13
2018-06-17T00:49:42.480Z,100348.89
2018-06-17T00:52:10.938Z,100349.14
2018-06-17T00:54:39.447Z,100349.59
2018-06-17T00:57:19.015Z,100344.34
2018-06-17T00:59:47.549Z,100344.78
2018-06-17T01:02:16.215Z,100351.36
2018-06-17T01:04:44.849Z,100362.33
2018-06-17T01:07:13.343Z,100362.55
2018-06-17T01:09:41.940Z,100362.09
2018-06-17T01:12:10.800Z,100367.45
2018-06-17T01:14:39.369Z,100369.34
2018-06-17T01:17:07.945Z,100364.52
2018-06-17T01:19:36.515Z,100366.81
2018-06-17T01:22:05.213Z,100362.70
2018-06-17T01:24:33.790Z,100369.47
2018-06-17T01:27:02.374Z,100370.03
2018-06-17T01:29:31.045Z,100374.59
2018-06-17T01:31:59.597Z,100385.94
2018-06-17T01:34:28.059Z,100380.23
2018-06-17T01:36:56.565Z,100379.30
2018-06-17T01:39:25.064Z,100376.58
2018-06-17T01:41:53.562Z,100388.23
2018-06-17T01:44:22.109Z,100389.89
2018-06-17T01:46:50.648Z,100388.00
2018-06-17T01:49:19.165Z,100383.28
2018-06-17T01:51:47.758Z,100380.89
2018-06-17T01:54:16.246Z,100386.30
2018-06-17T01:56:44.761Z,100384.71
2018-06-17T01:59:13.597Z,100384.05
2018-06-17T02:01:42.131Z,100389.00
2018-06-17T02:06:17.281Z,100391.95
2018-06-17T02:08:51.208Z,100390.28
2018-06-17T02:11:24.938Z,100394.94
2018-06-17T02:13:55.698Z,100395.14
2018-06-17T02:16:24.437Z,100403.31
2018-06-17T02:18:52.980Z,100393.94
2018-06-17T02:21:21.460Z,100399.94
2018-06-17T02:23:50.004Z,100403.30
2018-06-17T02:26:18.530Z,100395.75
2018-06-17T02:28:47.101Z,100401.83
2018-06-17T02:31:15.646Z,100400.30
2018-06-17T02:33:47.090Z,100405.58
2018-06-17T02:36:15.609Z,100399.70
2018-06-17T02:38:44.208Z,100397.41
2018-06-17T02:41:12.793Z,100398.36
2018-06-17T02:43:41.251Z,100395.69
2018-06-17T02:46:14.941Z,100398.04
2018-06-17T02:48:48.681Z,100393.52
2018-06-17T02:51:22.632Z,100394.44
2018-06-17T02:54:56.526Z,100399.62
2018-06-17T02:57:25.371Z,100407.97
2018-06-17T02:59:53.888Z,100399.81
2018-06-17T03:02:22.457Z,100406.28
2018-06-17T03:04:51.152Z,100403.08
2018-06-17T03:07:19.707Z,100402.77
2018-06-17T03:09:48.252Z,100397.22
2018-06-17T03:12:16.763Z,100391.87
2018-06-17T03:14:45.377Z,100397.53
2018-06-17T03:17:13.825Z,100392.57
2018-06-17T03:19:42.598Z,100400.95
2018-06-17T03:22:11.089Z,100399.29
2018-06-17T03:26:50.994Z,100397.88
2018-06-17T03:29:24.736Z,100402.68
2018-06-17T03:31:58.459Z,100401.66
2018-06-17T03:34:26.998Z,100410.31
2018-06-17T03:36:55.774Z,100407.20
2018-06-17T03:39:24.388Z,100406.84
2018-06-17T03:41:53.007Z,100411.95
2018-06-17T03:44:21.522Z,100413.92
2018-06-17T03:46:49.962Z,100411.64
2018-06-17T03:49:18.480Z,100406.16
2018-06-17T03:51:47.270Z,100403.97
2018-06-17T03:54:15.727Z,100405.27
2018-06-17T03:56:44.386Z,100410.88
2018-06-17T03:59:12.925Z,100411.98
2018-06-17T04:01:41.469Z,100416.63
2018-06-17T04:04:10.063Z,100420.63
2018-06-17T04:06:38.575Z,100426.34
2018-06-17T04:09:08.388Z,100423.69
2018-06-17T04:11:37.344Z,100425.88
2018-06-17T04:14:05.830Z,100419.98
2018-06-17T04:16:34.378Z,100429.97
2018-06-17T04:19:02.859Z,100434.03
2018-06-17T04:21:31.477Z,100424.58
2018-06-17T04:24:00.018Z,100426.36
2018-06-17T04:26:28.523Z,100424.78
2018-06-17T04:28:57.318Z,100425.77
2018-06-17T04:31:25.905Z,100422.88
2018-06-17T04:33:54.632Z,100422.19
2018-06-17T04:36:23.207Z,100428.19
2018-06-17T04:38:51.794Z,100432.61
2018-06-17T04:41:20.313Z,100435.08
2018-06-17T04:43:48.957Z,100432.69
2018-06-17T04:46:17.472Z,100441.69
2018-06-17T04:48:45.970Z,100440.17
2018-06-17T04:51:14.820Z,100446.80
2018-06-17T04:53:43.524Z,100444.45
2018-06-17T04:56:12.100Z,100445.23
2018-06-17T04:58:40.659Z,100445.01
2018-06-17T05:01:09.424Z,100449.98
2018-06-17T05:03:38.012Z,100455.30
2018-06-17T05:06:06.647Z,100469.86
2018-06-17T05:08:35.523Z,100472.08
2018-06-17T05:11:04.146Z,100477.11
2018-06-17T05:13:33.162Z,100472.39
2018-06-17T05:16:01.630Z,100467.80
2018-06-17T05:18:30.358Z,100465.30
2018-06-17T05:20:58.935Z,100476.27
2018-06-17T05:23:27.528Z,100478.70
2018-06-17T05:25:56.038Z,100473.98
2018-06-17T05:28:24.725Z,100466.80
2018-06-17T05:30:53.278Z,100467.34
2018-06-17T05:33:21.842Z,100468.43
2018-06-17T05:35:50.476Z,100477.41
2018-06-17T05:38:19.329Z,100482.94
2018-06-17T05:40:47.987Z,100485.05
2018-06-17T05:43:16.705Z,100483.19
2018-06-17T05:45:45.592Z,100490.22
2018-06-17T05:48:14.285Z,100492.38
2018-06-17T05:50:42.910Z,100488.17
2018-06-17T05:53:11.561Z,100494.07
2018-06-17T05:55:40.222Z,100496.52
2018-06-17T05:58:09.095Z,100500.69
2018-06-17T06:00:37.812Z,100502.82
2018-06-17T06:03:06.392Z,100502.39
2018-06-17T06:05:34.994Z,100498.78
2018-06-17T06:08:03.634Z,100499.17
2018-06-17T06:10:32.145Z,100503.62
2018-06-17T06:13:00.615Z,100508.97
2018-06-17T06:15:29.250Z,100509.73
2018-06-17T06:17:57.973Z,100509.91
2018-06-17T06:20:27.582Z,100515.36
2018-06-17T06:22:56.913Z,100511.38
2018-06-17T06:25:25.594Z,100515.23
2018-06-17T06:27:54.283Z,100517.91
2018-06-17T06:30:22.934Z,100521.67
2018-06-17T06:32:51.500Z,100520.00
2018-06-17T06:35:20.051Z,100527.91
2018-06-17T06:37:48.685Z,100531.42
2018-06-17T06:40:17.329Z,100528.34
2018-06-17T06:45:19.386Z,100534.36
2018-06-17T06:47:49.117Z,100538.43
2018-06-17T06:50:18.018Z,100537.57
2018-06-17T06:52:46.881Z,100537.50
2018-06-17T06:55:15.470Z,100544.73
2018-06-17T06:57:44.218Z,100539.83
2018-06-17T07:00:12.940Z,100543.29
2018-06-17T07:02:52.490Z,100550.52
2018-06-17T07:05:32.163Z,100545.02
2018-06-17T07:08:11.775Z,100547.73
2018-06-17T07:10:41.102Z,100546.06
2018-06-17T07:13:10.150Z,100547.72
2018-06-17T07:15:50.195Z,100551.00
2018-06-17T07:18:30.382Z,100556.30
2018-06-17T07:20:59.191Z,100555.56
2018-06-17T07:23:27.893Z,100550.73
2018-06-17T07:26:33.782Z,100559.09
2018-06-17T07:29:13.460Z,100560.38
2018-06-17T07:31:41.999Z,100557.69
2018-06-17T07:34:11.521Z,100564.30
2018-06-17T07:36:40.728Z,100562.91
2018-06-17T07:39:23.163Z,100571.59
2018-06-17T07:41:54.175Z,100573.55
2018-06-17T07:44:22.833Z,100568.86
2018-06-17T07:46:51.679Z,100569.69
2018-06-17T07:49:34.787Z,100563.98
2018-06-17T07:52:16.369Z,100565.52
2018-06-17T07:54:46.386Z,100573.20
2018-06-17T07:57:20.939Z,100570.13
2018-06-17T07:59:49.805Z,100561.47
2018-06-17T08:02:18.660Z,100560.03
2018-06-17T08:04:47.301Z,100567.57
2018-06-17T08:07:16.726Z,100560.99
2018-06-17T08:09:45.262Z,100570.08
2018-06-17T08:12:14.530Z,100567.66
2018-06-17T08:14:43.162Z,100570.38
2018-06-17T08:17:11.715Z,100571.84
2018-06-17T08:19:40.758Z,100573.39
2018-06-17T08:22:09.580Z,100563.19
2018-06-17T08:24:39.215Z,100573.00
2018-06-17T08:27:07.794Z,100569.91
2018-06-17T08:29:36.519Z,100566.00
2018-06-17T08:32:05.205Z,100567.06
2018-06-17T08:34:33.811Z,100558.25
2018-06-17T08:37:02.690Z,100568.30
2018-06-17T08:39:31.446Z,100559.65
2018-06-17T08:41:59.997Z,100562.03
2018-06-17T08:44:28.519Z,100565.39
2018-06-17T08:46:57.392Z,100566.23
2018-06-17T08:49:26.316Z,100555.31
2018-06-17T08:51:54.975Z,100552.85
2018-06-17T08:54:23.563Z,100556.20
2018-06-17T08:56:52.199Z,100560.84
2018-06-17T08:59:21.645Z,100557.67
2018-06-17T09:01:50.844Z,100551.45
2018-06-17T09:04:20.396Z,100556.52
2018-06-17T09:06:49.640Z,100556.13
2018-06-17T09:09:18.560Z,100557.75
2018-06-17T09:11:47.413Z,100556.95
2018-06-17T09:14:16.554Z,100549.37
2018-06-17T09:16:45.975Z,100557.58
2018-06-17T09:19:14.804Z,100556.10
2018-06-17T09:21:43.323Z,100553.39
2018-06-17T09:24:12.895Z,100558.09
2018-06-17T09:26:41.810Z,100557.66
2018-06-17T09:29:10.696Z,100554.93
2018-06-17T09:31:40.072Z,100555.75
2018-06-17T09:34:09.210Z,100549.96
2018-06-17T09:36:38.529Z,100551.55
2018-06-17T09:39:09.248Z,100553.70
2018-06-17T09:41:38.461Z,100552.00
2018-06-17T09:44:07.121Z,100545.98
2018-06-17T09:46:36.074Z,100546.47
2018-06-17T09:49:05.247Z,100554.14
2018-06-17T09:51:33.826Z,100552.03
2018-06-17T09:54:02.990Z,100554.73
2018-06-17T09:56:31.865Z,100548.87
2018-06-17T09:59:00.654Z,100553.36
2018-06-17T10:01:29.412Z,100553.91
2018-06-17T10:03:58.050Z,100552.70
2018-06-17T10:06:27.398Z,100555.11
2018-06-17T10:08:56.755Z,100555.41
2018-06-17T10:11:25.718Z,100548.94
2018-06-17T10:13:54.617Z,100541.67
2018-06-17T10:16:23.324Z,100542.30
2018-06-17T10:18:52.211Z,100541.05
2018-06-17T10:21:21.210Z,100542.73
2018-06-17T10:23:50.036Z,100534.98
2018-06-17T10:26:19.137Z,100539.71
2018-06-17T10:28:47.780Z,100543.28
2018-06-17T10:31:16.637Z,100544.91
2018-06-17T10:33:45.214Z,100549.03
2018-06-17T10:36:14.449Z,100543.44
2018-06-17T10:38:44.009Z,100550.44
2018-06-17T10:41:13.262Z,100537.42
2018-06-17T10:43:42.209Z,100531.41
2018-06-17T10:46:11.047Z,100542.19
2018-06-17T10:48:41.625Z,100555.59
2018-06-17T10:51:10.115Z,100547.30
2018-06-17T10:53:39.065Z,100555.98
2018-06-17T10:56:08.059Z,100563.47
2018-06-17T10:58:36.995Z,100562.53
2018-06-17T11:01:06.393Z,100562.13
2018-06-17T11:03:35.954Z,100556.50
2018-06-17T11:06:05.082Z,100567.31
2018-06-17T11:08:33.814Z,100561.65
2018-06-17T11:11:02.879Z,100563.97
2018-06-17T11:13:31.388Z,100566.76
2018-06-17T11:16:00.440Z,100569.55
2018-06-17T11:18:29.804Z,100562.73
2018-06-17T11:20:58.398Z,100563.10
2018-06-17T11:23:28.527Z,100563.25
2018-06-17T11:25:57.374Z,100568.71
2018-06-17T11:28:25.993Z,100560.90
2018-06-17T11:30:55.498Z,100557.73
2018-06-17T11:33:24.137Z,100560.02
2018-06-17T11:35:52.691Z,100556.58
2018-06-17T11:38:24.060Z,100554.59
2018-06-17T11:40:55.065Z,100566.25
2018-06-17T11:43:24.303Z,100561.02
2018-06-17T11:45:53.657Z,100563.20
2018-06-17T11:48:23.481Z,100569.81
2018-06-17T11:50:52.911Z,100567.55
2018-06-17T11:53:21.491Z,100548.36
2018-06-17T11:55:53.111Z,100562.17
2018-06-17T11:58:26.357Z,100562.29
2018-06-17T12:00:55.090Z,100561.38
2018-06-17T12:03:25.883Z,100553.86
2018-06-17T12:05:58.176Z,100554.42
2018-06-17T12:08:27.009Z,100563.34
2018-06-17T12:10:55.691Z,100563.42
2018-06-17T12:13:29.080Z,100565.04
2018-06-17T12:15:59.710Z,100570.22
2018-06-17T12:18:31.523Z,100561.09
2018-06-17T12:21:01.442Z,100565.13
2018-06-17T12:23:32.194Z,100569.89
2018-06-17T12:26:01.582Z,100557.34
2018-06-17T12:28:30.194Z,100568.46
2018-06-17T12:30:59.661Z,100568.20
2018-06-17T12:33:28.492Z,100576.14
2018-06-17T12:35:58.521Z,100571.62
2018-06-17T12:38:35.311Z,100561.89
2018-06-17T12:41:04.354Z,100563.21
2018-06-17T12:43:33.120Z,100567.22
2018-06-17T12:46:04.589Z,100569.24
2018-06-17T12:48:33.175Z,100573.20
2018-06-17T12:51:01.989Z,100571.33
2018-06-17T12:53:30.649Z,100576.88
2018-06-17T12:55:59.302Z,100583.22
2018-06-17T12:58:28.082Z,100579.45
2018-06-17T13:00:57.100Z,100578.17
2018-06-17T13:03:25.989Z,100578.23
2018-06-17T13:05:54.966Z,100571.60
2018-06-17T13:08:23.717Z,100580.88
2018-06-17T13:10:52.234Z,100586.49
2018-06-17T13:13:21.023Z,100576.61
2018-06-17T13:15:49.506Z,100579.84
2018-06-17T13:18:18.010Z,100570.13
2018-06-17T13:20:46.537Z,100572.86
2018-06-17T13:23:15.175Z,100574.07
2018-06-17T13:25:43.657Z,100566.20
2018-06-17T13:28:12.615Z,100574.34
2018-06-17T13:30:41.404Z,100576.77
2018-06-17T13:33:10.016Z,100583.19
2018-06-17T13:35:38.705Z,100574.60
2018-06-17T13:38:07.484Z,100583.52
2018-06-17T13:40:35.996Z,100591.28
2018-06-17T13:43:04.563Z,100585.76
2018-06-17T13:45:33.221Z,100581.50
2018-06-17T13:48:01.735Z,100585.26
2018-06-17T13:50:30.494Z,100583.67
2018-06-17T13:52:59.418Z,100601.80
2018-06-17T13:55:28.306Z,100591.34
2018-06-17T13:57:57.165Z,100592.11
2018-06-17T14:00:25.718Z,100581.66
2018-06-17T14:02:54.492Z,100588.98
2018-06-17T14:05:23.033Z,100585.38
2018-06-17T14:07:51.860Z,100595.48
2018-06-17T14:10:20.448Z,100596.42
2018-06-17T14:12:49.015Z,100598.20
2018-06-17T14:15:17.542Z,100595.45
2018-06-17T14:17:46.425Z,100592.17
2018-06-17T14:20:15.377Z,100593.98
2018-06-17T14:22:44.229Z,100598.14
2018-06-17T14:25:13.230Z,100609.63
2018-06-17T14:27:42.034Z,100599.76
2018-06-17T14:30:10.619Z,100605.58
2018-06-17T14:32:39.403Z,100602.39
2018-06-17T14:35:08.111Z,100601.95
2018-06-17T14:37:37.238Z,100605.41
2018-06-17T14:40:06.103Z,100607.23
2018-06-17T14:43:40.325Z,100607.06
2018-06-17T14:46:13.930Z,100608.68
2018-06-17T14:48:47.937Z,100609.78
2018-06-17T14:51:21.910Z,100619.14
2018-06-17T14:53:50.649Z,100617.34
2018-06-17T14:56:19.130Z,100615.45
2018-06-17T14:58:47.623Z,100611.31
2018-06-17T15:01:16.369Z,100614.66
2018-06-17T15:03:44.990Z,100614.66
2018-06-17T15:06:13.800Z,100623.28
2018-06-17T15:08:43.008Z,100625.80
2018-06-17T15:11:11.523Z,100632.19
2018-06-17T15:13:40.155Z,100622.04
2018-06-17T15:16:08.736Z,100639.07
2018-06-17T15:18:37.446Z,100635.35
2018-06-17T15:21:05.996Z,100633.78
2018-06-17T15:23:34.529Z,100640.74
2018-06-17T15:26:03.286Z,100639.28
2018-06-17T15:28:32.217Z,100640.69
2018-06-17T15:31:05.899Z,100641.89
2018-06-17T15:35:42.309Z,100641.20
2018-06-17T15:38:16.275Z,100643.46
2018-06-17T15:40:50.130Z,100643.36
2018-06-17T15:43:18.943Z,100651.25
2018-06-17T15:45:47.663Z,100639.09
2018-06-17T15:48:16.170Z,100643.98
2018-06-17T15:50:44.691Z,100648.32
2018-06-17T15:53:13.130Z,100648.38
2018-06-17T15:55:41.623Z,100648.05
2018-06-17T15:58:10.194Z,100649.03
2018-06-17T16:00:39.428Z,100648.95
2018-06-17T16:03:08.820Z,100644.91
2018-06-17T16:05:38.302Z,100642.78
2018-06-17T16:08:06.814Z,100650.43
2018-06-17T16:10:35.936Z,100646.52
2018-06-17T16:13:11.209Z,100642.92
2018-06-17T16:15:49.729Z,100643.75
2018-06-17T16:18:23.766Z,100647.55
2018-06-17T16:20:59.607Z,100652.30
2018-06-17T16:23:29.423Z,100654.05
2018-06-17T16:25:58.132Z,100655.48
2018-06-17T16:28:26.693Z,100658.46
2018-06-17T16:30:55.341Z,100658.09
2018-06-17T16:33:23.872Z,100662.20
2018-06-17T16:35:52.592Z,100661.26
2018-06-17T16:38:21.589Z,100662.38
2018-06-17T16:40:50.343Z,100667.78
2018-06-17T16:43:19.471Z,100664.05
2018-06-17T16:45:48.038Z,100669.97
2018-06-17T16:48:16.695Z,100668.51
2018-06-17T16:52:55.846Z,100664.41
2018-06-17T16:55:29.553Z,100667.28
2018-06-17T17:00:09.013Z,100668.05
2018-06-17T17:02:37.575Z,100663.39
2018-06-17T17:05:06.225Z,100669.35
2018-06-17T17:07:35.116Z,100666.23
2018-06-17T17:10:03.943Z,100670.72
2018-06-17T17:12:32.783Z,100667.17
2018-06-17T17:15:01.769Z,100666.34
2018-06-17T17:17:30.401Z,100668.71
2018-06-17T17:19:59.161Z,100671.47
2018-06-17T17:22:27.776Z,100666.74
2018-06-17T17:24:56.292Z,100673.53
2018-06-17T17:27:24.915Z,100672.34
2018-06-17T17:29:53.627Z,100666.53
2018-06-17T17:32:27.332Z,100664.70
2018-06-17T17:35:01.014Z,100662.32
2018-06-17T17:37:34.756Z,100666.23
2018-06-17T17:40:08.598Z,100665.04
2018-06-17T17:42:37.153Z,100667.45
2018-06-17T17:45:11.705Z,100668.71
2018-06-17T17:47:40.425Z,100677.27
2018-06-17T17:50:08.956Z,100683.27
2018-06-17T17:52:37.860Z,100688.87
2018-06-17T17:55:06.558Z,100686.70
2018-06-17T17:57:35.243Z,100691.22
2018-06-17T18:00:04.640Z,100690.17
2018-06-17T18:02:33.662Z,100684.34
2018-06-17T18:05:02.165Z,100689.50
2018-06-17T18:07:31.428Z,100688.25
2018-06-17T18:10:01.139Z,100694.27
2018-06-17T18:12:29.958Z,100696.19
2018-06-17T18:14:59.366Z,100701.34
2018-06-17T18:17:27.972Z,100702.47
2018-06-17T18:19:57.418Z,100700.56
2018-06-17T18:22:25.892Z,100698.50
2018-06-17T18:24:59.729Z,100694.83
2018-06-17T18:27:33.711Z,100700.05
2018-06-17T18:30:09.734Z,100704.17
2018-06-17T18:32:43.517Z,100696.88
2018-06-17T18:35:19.313Z,100706.55
2018-06-17T18:37:50.522Z,100709.43
2018-06-17T18:40:19.207Z,100715.83
2018-06-17T18:42:47.943Z,100715.07
2018-06-17T18:45:17.117Z,100720.00
2018-06-17T18:47:45.679Z,100715.86
2018-06-17T18:50:15.109Z,100722.30
2018-06-17T18:52:44.739Z,100722.27
2018-06-17T18:55:13.411Z,100719.92
2018-06-17T18:57:41.964Z,100712.73
2018-06-17T19:00:10.591Z,100713.08
2018-06-17T19:02:39.351Z,100723.01
2018-06-17T19:05:08.097Z,100716.11
2018-06-17T19:07:36.948Z,100722.84
2018-06-17T19:10:10.999Z,100719.47
2018-06-17T19:12:44.973Z,100724.02
2018-06-17T19:15:18.919Z,100727.58
2018-06-17T19:17:52.929Z,100726.14
2018-06-17T19:20:22.847Z,100729.98
2018-06-17T19:22:51.401Z,100741.22
2018-06-17T19:25:20.021Z,100740.05
2018-06-17T19:27:48.893Z,100742.96
2018-06-17T19:30:17.543Z,100745.56
2018-06-17T19:32:46.353Z,100749.02
2018-06-17T19:35:15.031Z,100747.02
2018-06-17T19:37:43.564Z,100757.15
2018-06-17T19:40:12.205Z,100759.67
2018-06-17T19:42:41.070Z,100759.45
2018-06-17T19:45:10.277Z,100754.72
2018-06-17T19:47:39.000Z,100757.89
2018-06-17T19:50:13.136Z,100771.19
2018-06-17T19:52:47.473Z,100763.69
2018-06-17T19:55:21.386Z,100772.06
2018-06-17T19:57:55.312Z,100771.39
2018-06-17T20:00:29.185Z,100769.55
2018-06-17T20:02:58.541Z,100762.57
2018-06-17T20:05:28.265Z,100767.52
2018-06-17T20:07:57.155Z,100768.97
2018-06-17T20:10:26.644Z,100763.08
2018-06-17T20:12:55.620Z,100763.54
2018-06-17T20:15:24.510Z,100774.81
2018-06-17T20:17:53.882Z,100767.84
2018-06-17T20:20:22.893Z,100769.78
2018-06-17T20:22:51.416Z,100769.53
2018-06-17T20:25:20.419Z,100766.02
2018-06-17T20:27:50.724Z,100765.13
2018-06-17T20:30:19.284Z,100761.75
2018-06-17T20:32:53.435Z,100763.82
2018-06-17T20:35:27.262Z,100764.25
2018-06-17T20:38:01.098Z,100764.31
2018-06-17T20:40:35.011Z,100763.17
2018-06-17T20:43:10.256Z,100769.34
2018-06-17T20:45:39.570Z,100772.55
2018-06-17T20:48:09.447Z,100772.03
2018-06-17T20:50:37.953Z,100773.89
2018-06-17T20:53:07.515Z,100775.29
2018-06-17T20:55:36.755Z,100775.91
2018-06-17T20:58:06.908Z,100777.31
2018-06-17T21:00:37.772Z,100768.03
2018-06-17T21:03:06.506Z,100772.08
2018-06-17T21:05:35.519Z,100778.24
2018-06-17T21:08:04.206Z,100773.91
2018-06-17T21:10:33.149Z,100778.51
2018-06-17T21:13:01.680Z,100783.50
2018-06-17T21:15:33.122Z,100781.62
2018-06-17T21:18:01.911Z,100780.27
2018-06-17T21:20:35.865Z,100789.09
2018-06-17T21:23:11.327Z,100787.27
2018-06-17T21:25:45.147Z,100785.41
2018-06-17T21:28:14.364Z,100794.42
2018-06-17T21:30:43.082Z,100793.70
2018-06-17T21:33:11.845Z,100799.19
2018-06-17T21:35:40.555Z,100801.09
2018-06-17T21:38:09.994Z,100801.15
2018-06-17T21:40:38.605Z,100805.03
2018-06-17T21:43:07.572Z,100805.41
2018-06-17T21:45:37.166Z,100808.52
2018-06-17T21:48:05.990Z,100804.91
2018-06-17T21:50:35.002Z,100810.08
2018-06-17T21:53:03.721Z,100808.11
2018-06-17T21:55:32.939Z,100810.81
2018-06-17T21:58:02.313Z,100809.39
2018-06-17T22:00:31.167Z,100810.84
2018-06-17T22:03:00.120Z,100813.06
2018-06-17T22:05:29.297Z,100816.67
2018-06-17T22:08:03.022Z,100817.42
2018-06-17T22:10:36.757Z,100817.39
2018-06-17T22:13:05.393Z,100816.09
2018-06-17T22:15:39.039Z,100816.14
2018-06-17T22:18:07.638Z,100818.59
2018-06-17T22:20:36.151Z,100815.03
2018-06-17T22:23:04.765Z,100815.63
2018-06-17T22:25:33.392Z,100818.50
2018-06-17T22:28:02.009Z,100817.91
2018-06-17T22:30:30.689Z,100828.66
2018-06-17T22:32:59.225Z,100832.69
2018-06-17T22:35:27.871Z,100830.09
2018-06-17T22:37:56.457Z,100832.50
2018-06-17T22:40:25.060Z,100834.81
2018-06-17T22:42:53.729Z,100846.00
2018-06-17T22:45:22.265Z,100849.69
2018-06-17T22:47:55.982Z,100846.31
2018-06-17T22:50:24.553Z,100850.23
2018-06-17T22:53:04.100Z,100849.91
2018-06-17T22:55:32.697Z,100847.66
2018-06-17T22:58:06.417Z,100854.25
2018-06-17T23:00:40.292Z,100848.20
2018-06-17T23:03:14.012Z,100855.64
2018-06-17T23:05:47.753Z,100845.30
2018-06-17T23:08:21.641Z,100845.09
2018-06-17T23:10:50.186Z,100854.14
2018-06-17T23:13:18.713Z,100855.36
2018-06-17T23:15:47.274Z,100853.56
2018-06-17T23:18:15.897Z,100849.40
2018-06-17T23:20:44.459Z,100854.98
2018-06-17T23:23:13.092Z,100848.23
2018-06-17T23:25:41.670Z,100849.02
2018-06-17T23:28:10.311Z,100848.13
2018-06-17T23:30:39.066Z,100855.33
2018-06-17T23:33:07.479Z,100849.88
2018-06-17T23:35:36.074Z,100843.92
2018-06-17T23:38:04.629Z,100845.20
2018-06-17T23:40:33.133Z,100850.76
2018-06-17T23:43:01.721Z,100852.77
2018-06-17T23:45:30.393Z,100853.41
2018-06-17T23:48:04.257Z,100853.64
2018-06-17T23:50:38.028Z,100852.75
2018-06-17T23:53:11.786Z,100857.47
2018-06-17T23:55:45.680Z,100859.91
2018-06-17T23:58:14.446Z,100860.60
